Terminal Aerodrome Forecast
Issued by NWS

Home | Current Version | Previous Version | Text Only | Print | Product List | Glossary On
Versions: 1 2 3 4 5 6 7 8 9 10 11 12 13 14 15 16 17 18
000
FTUS46 KSEW 162300 RRA
TAFPAE
TAF
KPAE 162342Z 1700/1724 18013KT P6SM -RA SCT018 OVC050
      TEMPO 1700/1704 6SM -RA BR BKN018 OVC050
     FM170800 17010KT 4SM -RA BR FEW007 OVC015
     FM171800 17018G28KT 5SM -RA BR BKN015 OVC030
     FM172200 19013KT P6SM -SHRA BKN022 OVC050=

USA.gov is the U.S. government's official web portal to all federal, state and local government web resources and services.